sensor_id;sensor_type;location;lat;lon;timestamp;P1;durP1;ratioP1;P2;durP2;ratioP2
6031;SDS011;3044;43.232;27.972;2023-02-12T00:01:23;15.03;;;9.30;;
6031;SDS011;3044;43.232;27.972;2023-02-12T00:03:52;20.90;;;10.87;;
6031;SDS011;3044;43.232;27.972;2023-02-12T00:06:20;25.40;;;10.40;;
6031;SDS011;3044;43.232;27.972;2023-02-12T00:08:48;16.80;;;9.70;;
6031;SDS011;3044;43.232;27.972;2023-02-12T00:11:19;19.67;;;11.53;;
6031;SDS011;3044;43.232;27.972;2023-02-12T00:13:48;15.43;;;9.97;;
6031;SDS011;3044;43.232;27.972;2023-02-12T00:16:16;19.17;;;9.53;;
6031;SDS011;3044;43.232;27.972;2023-02-12T00:18:45;18.00;;;10.77;;
6031;SDS011;3044;43.232;27.972;2023-02-12T00:21:13;20.30;;;11.47;;
6031;SDS011;3044;43.232;27.972;2023-02-12T00:23:41;18.43;;;11.43;;
6031;SDS011;3044;43.232;27.972;2023-02-12T00:26:10;16.80;;;11.00;;
6031;SDS011;3044;43.232;27.972;2023-02-12T00:28:40;16.30;;;11.97;;
6031;SDS011;3044;43.232;27.972;2023-02-12T00:31:08;21.67;;;12.57;;
6031;SDS011;3044;43.232;27.972;2023-02-12T00:33:36;22.50;;;12.10;;
6031;SDS011;3044;43.232;27.972;2023-02-12T00:36:04;19.73;;;12.13;;
6031;SDS011;3044;43.232;27.972;2023-02-12T00:38:32;20.10;;;12.97;;
6031;SDS011;3044;43.232;27.972;2023-02-12T00:40:59;19.50;;;12.27;;
6031;SDS011;3044;43.232;27.972;2023-02-12T00:43:27;22.33;;;11.30;;
6031;SDS011;3044;43.232;27.972;2023-02-12T00:45:55;17.77;;;12.20;;
6031;SDS011;3044;43.232;27.972;2023-02-12T00:48:22;24.73;;;13.10;;
6031;SDS011;3044;43.232;27.972;2023-02-12T00:50:49;21.40;;;13.80;;
6031;SDS011;3044;43.232;27.972;2023-02-12T00:53:17;32.50;;;13.97;;
6031;SDS011;3044;43.232;27.972;2023-02-12T00:55:44;21.27;;;12.00;;
6031;SDS011;3044;43.232;27.972;2023-02-12T00:58:11;26.20;;;14.93;;
6031;SDS011;3044;43.232;27.972;2023-02-12T01:00:41;24.87;;;13.97;;
6031;SDS011;3044;43.232;27.972;2023-02-12T01:03:10;21.97;;;13.63;;
6031;SDS011;3044;43.232;27.972;2023-02-12T01:05:37;26.67;;;13.27;;
6031;SDS011;3044;43.232;27.972;2023-02-12T01:08:04;24.70;;;14.63;;
6031;SDS011;3044;43.232;27.972;2023-02-12T01:10:31;25.40;;;13.90;;
6031;SDS011;3044;43.232;27.972;2023-02-12T01:12:59;22.10;;;12.83;;
6031;SDS011;3044;43.232;27.972;2023-02-12T01:15:26;23.97;;;14.20;;
6031;SDS011;3044;43.232;27.972;2023-02-12T01:17:53;19.80;;;12.07;;
6031;SDS011;3044;43.232;27.972;2023-02-12T01:20:22;24.10;;;13.73;;
6031;SDS011;3044;43.232;27.972;2023-02-12T01:22:50;20.10;;;13.03;;
6031;SDS011;3044;43.232;27.972;2023-02-12T01:25:17;23.63;;;13.57;;
6031;SDS011;3044;43.232;27.972;2023-02-12T02:26:25;41.97;;;21.77;;
6031;SDS011;3044;43.232;27.972;2023-02-12T02:29:13;41.00;;;23.40;;
6031;SDS011;3044;43.232;27.972;2023-02-12T02:32:04;44.73;;;20.30;;
6031;SDS011;3044;43.232;27.972;2023-02-12T02:34:37;43.40;;;24.80;;
6031;SDS011;3044;43.232;27.972;2023-02-12T02:37:11;45.63;;;22.80;;
6031;SDS011;3044;43.232;27.972;2023-02-12T02:39:45;44.67;;;21.43;;
6031;SDS011;3044;43.232;27.972;2023-02-12T02:42:18;43.10;;;22.87;;
6031;SDS011;3044;43.232;27.972;2023-02-12T02:44:51;46.20;;;20.90;;
6031;SDS011;3044;43.232;27.972;2023-02-12T02:47:23;36.27;;;20.17;;
6031;SDS011;3044;43.232;27.972;2023-02-12T02:49:59;32.93;;;18.37;;
6031;SDS011;3044;43.232;27.972;2023-02-12T02:52:30;36.70;;;19.47;;
6031;SDS011;3044;43.232;27.972;2023-02-12T02:55:04;53.63;;;27.77;;
6031;SDS011;3044;43.232;27.972;2023-02-12T02:57:35;60.60;;;21.10;;
6031;SDS011;3044;43.232;27.972;2023-02-12T03:00:08;45.97;;;20.93;;
6031;SDS011;3044;43.232;27.972;2023-02-12T03:02:41;36.60;;;21.57;;
6031;SDS011;3044;43.232;27.972;2023-02-12T03:05:14;38.77;;;22.10;;
6031;SDS011;3044;43.232;27.972;2023-02-12T03:07:48;31.07;;;19.77;;
6031;SDS011;3044;43.232;27.972;2023-02-12T03:10:18;29.43;;;17.07;;
6031;SDS011;3044;43.232;27.972;2023-02-12T03:12:50;28.70;;;17.30;;
6031;SDS011;3044;43.232;27.972;2023-02-12T03:15:23;32.70;;;17.13;;
6031;SDS011;3044;43.232;27.972;2023-02-12T03:17:57;29.40;;;16.17;;
6031;SDS011;3044;43.232;27.972;2023-02-12T03:20:25;27.77;;;14.53;;
6031;SDS011;3044;43.232;27.972;2023-02-12T03:22:57;25.33;;;15.63;;
6031;SDS011;3044;43.232;27.972;2023-02-12T03:25:29;28.60;;;17.00;;
6031;SDS011;3044;43.232;27.972;2023-02-12T03:28:01;25.90;;;16.70;;
6031;SDS011;3044;43.232;27.972;2023-02-12T03:30:35;21.00;;;13.67;;
6031;SDS011;3044;43.232;27.972;2023-02-12T03:33:11;26.17;;;13.90;;
6031;SDS011;3044;43.232;27.972;2023-02-12T03:35:48;26.73;;;13.90;;
6031;SDS011;3044;43.232;27.972;2023-02-12T03:38:27;23.77;;;13.80;;
6031;SDS011;3044;43.232;27.972;2023-02-12T03:41:02;25.93;;;13.90;;
6031;SDS011;3044;43.232;27.972;2023-02-12T03:43:35;26.77;;;13.90;;
6031;SDS011;3044;43.232;27.972;2023-02-12T03:46:16;23.77;;;14.90;;
6031;SDS011;3044;43.232;27.972;2023-02-12T03:48:54;25.73;;;14.33;;
6031;SDS011;3044;43.232;27.972;2023-02-12T03:51:26;26.90;;;15.73;;
6031;SDS011;3044;43.232;27.972;2023-02-12T03:53:58;21.63;;;14.50;;
6031;SDS011;3044;43.232;27.972;2023-02-12T03:56:27;33.10;;;15.93;;
6031;SDS011;3044;43.232;27.972;2023-02-12T03:59:01;28.03;;;16.10;;
6031;SDS011;3044;43.232;27.972;2023-02-12T04:01:30;24.30;;;14.20;;
6031;SDS011;3044;43.232;27.972;2023-02-12T04:04:00;26.93;;;15.90;;
6031;SDS011;3044;43.232;27.972;2023-02-12T04:06:30;27.87;;;16.50;;
6031;SDS011;3044;43.232;27.972;2023-02-12T04:09:02;21.80;;;15.03;;
6031;SDS011;3044;43.232;27.972;2023-02-12T04:11:33;29.10;;;17.17;;
6031;SDS011;3044;43.232;27.972;2023-02-12T04:14:12;32.20;;;16.20;;
6031;SDS011;3044;43.232;27.972;2023-02-12T04:16:44;30.43;;;17.57;;
6031;SDS011;3044;43.232;27.972;2023-02-12T04:19:22;26.73;;;16.80;;
6031;SDS011;3044;43.232;27.972;2023-02-12T04:21:59;32.50;;;16.50;;
6031;SDS011;3044;43.232;27.972;2023-02-12T04:24:43;32.33;;;17.80;;
6031;SDS011;3044;43.232;27.972;2023-02-12T04:27:17;26.93;;;16.27;;
6031;SDS011;3044;43.232;27.972;2023-02-12T04:29:49;27.40;;;17.70;;
6031;SDS011;3044;43.232;27.972;2023-02-12T04:32:23;31.97;;;17.90;;
6031;SDS011;3044;43.232;27.972;2023-02-12T04:34:56;26.37;;;16.97;;
6031;SDS011;3044;43.232;27.972;2023-02-12T04:37:30;36.20;;;19.40;;
6031;SDS011;3044;43.232;27.972;2023-02-12T04:40:04;33.23;;;18.43;;
6031;SDS011;3044;43.232;27.972;2023-02-12T04:42:39;34.63;;;17.67;;
6031;SDS011;3044;43.232;27.972;2023-02-12T04:45:08;32.07;;;18.60;;
6031;SDS011;3044;43.232;27.972;2023-02-12T04:47:36;30.37;;;18.70;;
6031;SDS011;3044;43.232;27.972;2023-02-12T04:50:05;33.93;;;19.20;;
6031;SDS011;3044;43.232;27.972;2023-02-12T04:52:33;34.03;;;18.93;;
6031;SDS011;3044;43.232;27.972;2023-02-12T04:55:00;32.83;;;20.43;;
6031;SDS011;3044;43.232;27.972;2023-02-12T04:57:27;41.00;;;19.97;;
6031;SDS011;3044;43.232;27.972;2023-02-12T04:59:55;33.10;;;19.40;;
6031;SDS011;3044;43.232;27.972;2023-02-12T05:02:22;34.20;;;20.07;;
6031;SDS011;3044;43.232;27.972;2023-02-12T05:04:49;31.67;;;17.77;;
6031;SDS011;3044;43.232;27.972;2023-02-12T05:07:18;33.30;;;19.77;;
6031;SDS011;3044;43.232;27.972;2023-02-12T05:09:45;34.33;;;20.20;;
6031;SDS011;3044;43.232;27.972;2023-02-12T05:12:12;35.47;;;20.70;;
6031;SDS011;3044;43.232;27.972;2023-02-12T05:14:39;36.40;;;20.77;;
6031;SDS011;3044;43.232;27.972;2023-02-12T05:17:06;32.37;;;19.03;;
6031;SDS011;3044;43.232;27.972;2023-02-12T05:19:33;37.47;;;19.33;;
6031;SDS011;3044;43.232;27.972;2023-02-12T05:22:01;33.60;;;20.53;;
6031;SDS011;3044;43.232;27.972;2023-02-12T05:24:29;35.10;;;19.67;;
6031;SDS011;3044;43.232;27.972;2023-02-12T05:26:57;35.70;;;21.10;;
6031;SDS011;3044;43.232;27.972;2023-02-12T05:29:24;33.73;;;22.43;;
6031;SDS011;3044;43.232;27.972;2023-02-12T05:31:51;39.70;;;22.27;;
6031;SDS011;3044;43.232;27.972;2023-02-12T05:34:18;33.03;;;19.60;;
6031;SDS011;3044;43.232;27.972;2023-02-12T05:36:45;38.50;;;21.80;;
6031;SDS011;3044;43.232;27.972;2023-02-12T05:39:12;40.90;;;23.20;;
6031;SDS011;3044;43.232;27.972;2023-02-12T05:41:41;36.97;;;22.60;;
6031;SDS011;3044;43.232;27.972;2023-02-12T05:44:08;37.53;;;22.23;;
6031;SDS011;3044;43.232;27.972;2023-02-12T05:46:36;34.30;;;21.60;;
6031;SDS011;3044;43.232;27.972;2023-02-12T05:49:04;45.17;;;24.93;;
6031;SDS011;3044;43.232;27.972;2023-02-12T05:51:31;37.40;;;22.33;;
6031;SDS011;3044;43.232;27.972;2023-02-12T05:53:59;42.47;;;23.07;;
6031;SDS011;3044;43.232;27.972;2023-02-12T05:56:29;37.57;;;21.00;;
6031;SDS011;3044;43.232;27.972;2023-02-12T05:59:00;41.43;;;22.67;;
6031;SDS011;3044;43.232;27.972;2023-02-12T06:01:30;42.13;;;23.20;;
6031;SDS011;3044;43.232;27.972;2023-02-12T06:04:00;34.80;;;20.80;;
6031;SDS011;3044;43.232;27.972;2023-02-12T06:06:28;35.03;;;21.63;;
6031;SDS011;3044;43.232;27.972;2023-02-12T06:08:56;44.47;;;24.47;;
6031;SDS011;3044;43.232;27.972;2023-02-12T06:11:23;40.17;;;23.80;;
6031;SDS011;3044;43.232;27.972;2023-02-12T06:13:51;40.07;;;22.10;;
6031;SDS011;3044;43.232;27.972;2023-02-12T06:16:20;43.30;;;23.97;;
6031;SDS011;3044;43.232;27.972;2023-02-12T06:18:49;42.60;;;24.50;;
6031;SDS011;3044;43.232;27.972;2023-02-12T06:21:17;39.53;;;24.10;;
6031;SDS011;3044;43.232;27.972;2023-02-12T06:23:48;33.40;;;20.80;;
6031;SDS011;3044;43.232;27.972;2023-02-12T06:26:16;44.70;;;25.17;;
6031;SDS011;3044;43.232;27.972;2023-02-12T06:28:43;42.27;;;23.47;;
6031;SDS011;3044;43.232;27.972;2023-02-12T06:31:16;42.57;;;25.77;;
6031;SDS011;3044;43.232;27.972;2023-02-12T06:33:45;37.90;;;22.80;;
6031;SDS011;3044;43.232;27.972;2023-02-12T06:36:13;47.27;;;26.33;;
6031;SDS011;3044;43.232;27.972;2023-02-12T06:38:40;46.30;;;25.10;;
6031;SDS011;3044;43.232;27.972;2023-02-12T06:41:08;45.03;;;24.90;;
6031;SDS011;3044;43.232;27.972;2023-02-12T06:43:35;43.80;;;23.87;;
6031;SDS011;3044;43.232;27.972;2023-02-12T06:46:03;51.10;;;26.53;;
6031;SDS011;3044;43.232;27.972;2023-02-12T06:48:31;41.23;;;23.70;;
6031;SDS011;3044;43.232;27.972;2023-02-12T06:51:04;41.87;;;22.97;;
6031;SDS011;3044;43.232;27.972;2023-02-12T06:53:33;44.13;;;24.90;;
6031;SDS011;3044;43.232;27.972;2023-02-12T06:56:01;42.67;;;24.20;;
6031;SDS011;3044;43.232;27.972;2023-02-12T06:58:28;37.30;;;22.10;;
6031;SDS011;3044;43.232;27.972;2023-02-12T07:00:55;43.03;;;24.57;;
6031;SDS011;3044;43.232;27.972;2023-02-12T07:03:22;42.50;;;24.27;;
6031;SDS011;3044;43.232;27.972;2023-02-12T07:05:49;45.33;;;26.03;;
6031;SDS011;3044;43.232;27.972;2023-02-12T07:08:18;40.50;;;22.60;;
6031;SDS011;3044;43.232;27.972;2023-02-12T07:10:47;38.77;;;23.60;;
6031;SDS011;3044;43.232;27.972;2023-02-12T07:13:15;41.83;;;25.37;;
6031;SDS011;3044;43.232;27.972;2023-02-12T07:15:42;43.30;;;24.30;;
6031;SDS011;3044;43.232;27.972;2023-02-12T07:18:09;49.03;;;23.80;;
6031;SDS011;3044;43.232;27.972;2023-02-12T07:20:36;42.13;;;24.47;;
6031;SDS011;3044;43.232;27.972;2023-02-12T07:23:03;34.57;;;21.77;;
6031;SDS011;3044;43.232;27.972;2023-02-12T07:25:32;37.47;;;22.60;;
6031;SDS011;3044;43.232;27.972;2023-02-12T07:27:59;35.53;;;20.70;;
6031;SDS011;3044;43.232;27.972;2023-02-12T07:30:26;42.53;;;23.90;;
6031;SDS011;3044;43.232;27.972;2023-02-12T07:32:53;39.87;;;22.87;;
6031;SDS011;3044;43.232;27.972;2023-02-12T07:35:20;38.83;;;22.87;;
6031;SDS011;3044;43.232;27.972;2023-02-12T07:37:51;39.77;;;23.23;;
6031;SDS011;3044;43.232;27.972;2023-02-12T07:40:18;37.40;;;20.83;;
6031;SDS011;3044;43.232;27.972;2023-02-12T07:42:47;37.27;;;22.40;;
6031;SDS011;3044;43.232;27.972;2023-02-12T07:45:19;34.03;;;20.40;;
6031;SDS011;3044;43.232;27.972;2023-02-12T07:47:46;37.13;;;22.50;;
6031;SDS011;3044;43.232;27.972;2023-02-12T07:50:14;38.27;;;22.50;;
6031;SDS011;3044;43.232;27.972;2023-02-12T07:52:41;42.43;;;24.53;;
6031;SDS011;3044;43.232;27.972;2023-02-12T07:55:08;40.27;;;21.60;;
6031;SDS011;3044;43.232;27.972;2023-02-12T07:57:36;37.90;;;23.20;;
6031;SDS011;3044;43.232;27.972;2023-02-12T08:00:05;33.93;;;22.50;;
6031;SDS011;3044;43.232;27.972;2023-02-12T08:02:33;40.10;;;22.37;;
6031;SDS011;3044;43.232;27.972;2023-02-12T08:05:00;37.20;;;21.80;;
6031;SDS011;3044;43.232;27.972;2023-02-12T08:07:28;36.57;;;22.87;;
6031;SDS011;3044;43.232;27.972;2023-02-12T08:09:55;30.03;;;19.93;;
6031;SDS011;3044;43.232;27.972;2023-02-12T08:12:22;35.40;;;20.03;;
6031;SDS011;3044;43.232;27.972;2023-02-12T08:14:49;32.97;;;19.60;;
6031;SDS011;3044;43.232;27.972;2023-02-12T08:17:18;32.30;;;19.53;;
6031;SDS011;3044;43.232;27.972;2023-02-12T08:19:45;35.70;;;20.27;;
6031;SDS011;3044;43.232;27.972;2023-02-12T08:22:12;32.97;;;20.50;;
6031;SDS011;3044;43.232;27.972;2023-02-12T08:24:39;29.03;;;18.50;;
6031;SDS011;3044;43.232;27.972;2023-02-12T08:27:07;32.67;;;20.20;;
6031;SDS011;3044;43.232;27.972;2023-02-12T08:29:34;40.43;;;21.63;;
6031;SDS011;3044;43.232;27.972;2023-02-12T08:32:02;34.33;;;21.23;;
6031;SDS011;3044;43.232;27.972;2023-02-12T08:34:32;31.80;;;20.33;;
6031;SDS011;3044;43.232;27.972;2023-02-12T08:37:00;35.87;;;20.30;;
6031;SDS011;3044;43.232;27.972;2023-02-12T08:39:29;35.33;;;21.10;;
6031;SDS011;3044;43.232;27.972;2023-02-12T08:41:57;32.87;;;21.60;;
6031;SDS011;3044;43.232;27.972;2023-02-12T08:44:25;30.80;;;20.63;;
6031;SDS011;3044;43.232;27.972;2023-02-12T08:46:53;27.90;;;19.50;;
6031;SDS011;3044;43.232;27.972;2023-02-12T08:49:22;32.13;;;20.30;;
6031;SDS011;3044;43.232;27.972;2023-02-12T08:51:52;34.53;;;20.50;;
6031;SDS011;3044;43.232;27.972;2023-02-12T08:54:22;32.07;;;20.20;;
6031;SDS011;3044;43.232;27.972;2023-02-12T08:56:53;43.20;;;24.57;;
6031;SDS011;3044;43.232;27.972;2023-02-12T08:59:21;32.37;;;21.10;;
6031;SDS011;3044;43.232;27.972;2023-02-12T09:01:49;36.40;;;20.40;;
6031;SDS011;3044;43.232;27.972;2023-02-12T09:04:18;28.33;;;19.00;;
6031;SDS011;3044;43.232;27.972;2023-02-12T09:06:47;27.63;;;16.60;;
6031;SDS011;3044;43.232;27.972;2023-02-12T09:09:16;28.57;;;17.83;;
6031;SDS011;3044;43.232;27.972;2023-02-12T09:11:44;26.40;;;17.20;;
6031;SDS011;3044;43.232;27.972;2023-02-12T09:14:13;25.07;;;16.50;;
6031;SDS011;3044;43.232;27.972;2023-02-12T09:16:41;23.23;;;15.80;;
6031;SDS011;3044;43.232;27.972;2023-02-12T09:19:10;29.33;;;17.57;;
6031;SDS011;3044;43.232;27.972;2023-02-12T09:21:39;26.93;;;17.07;;
6031;SDS011;3044;43.232;27.972;2023-02-12T09:24:06;28.70;;;18.30;;
6031;SDS011;3044;43.232;27.972;2023-02-12T09:26:35;32.47;;;17.07;;
6031;SDS011;3044;43.232;27.972;2023-02-12T09:29:03;36.13;;;19.17;;
6031;SDS011;3044;43.232;27.972;2023-02-12T09:31:31;26.30;;;18.33;;
6031;SDS011;3044;43.232;27.972;2023-02-12T09:33:59;29.20;;;18.30;;
6031;SDS011;3044;43.232;27.972;2023-02-12T09:36:28;26.20;;;17.80;;
6031;SDS011;3044;43.232;27.972;2023-02-12T09:38:55;25.93;;;17.07;;
6031;SDS011;3044;43.232;27.972;2023-02-12T09:41:30;27.80;;;17.70;;
6031;SDS011;3044;43.232;27.972;2023-02-12T09:44:21;29.53;;;17.70;;
6031;SDS011;3044;43.232;27.972;2023-02-12T09:46:55;25.43;;;15.87;;
6031;SDS011;3044;43.232;27.972;2023-02-12T09:49:32;27.17;;;16.17;;
6031;SDS011;3044;43.232;27.972;2023-02-12T09:52:12;22.43;;;16.20;;
6031;SDS011;3044;43.232;27.972;2023-02-12T09:54:42;25.53;;;17.30;;
6031;SDS011;3044;43.232;27.972;2023-02-12T09:57:13;24.17;;;15.87;;
6031;SDS011;3044;43.232;27.972;2023-02-12T09:59:46;25.53;;;15.97;;
6031;SDS011;3044;43.232;27.972;2023-02-12T10:02:19;23.80;;;15.63;;
6031;SDS011;3044;43.232;27.972;2023-02-12T10:04:49;26.60;;;16.67;;
6031;SDS011;3044;43.232;27.972;2023-02-12T10:07:19;22.70;;;16.70;;
6031;SDS011;3044;43.232;27.972;2023-02-12T10:12:46;25.73;;;18.37;;
6031;SDS011;3044;43.232;27.972;2023-02-12T10:18:25;22.73;;;16.00;;
6031;SDS011;3044;43.232;27.972;2023-02-12T10:21:08;22.90;;;15.57;;
6031;SDS011;3044;43.232;27.972;2023-02-12T10:23:52;29.57;;;17.80;;
6031;SDS011;3044;43.232;27.972;2023-02-12T10:26:40;24.90;;;16.23;;
6031;SDS011;3044;43.232;27.972;2023-02-12T10:29:13;29.33;;;17.17;;
6031;SDS011;3044;43.232;27.972;2023-02-12T10:31:47;26.93;;;17.30;;
6031;SDS011;3044;43.232;27.972;2023-02-12T10:34:18;32.67;;;16.57;;
6031;SDS011;3044;43.232;27.972;2023-02-12T10:36:48;25.93;;;16.47;;
6031;SDS011;3044;43.232;27.972;2023-02-12T10:39:19;24.27;;;15.27;;
6031;SDS011;3044;43.232;27.972;2023-02-12T10:41:48;27.10;;;17.37;;
6031;SDS011;3044;43.232;27.972;2023-02-12T10:44:21;28.83;;;17.50;;
6031;SDS011;3044;43.232;27.972;2023-02-12T10:46:50;27.63;;;17.47;;
6031;SDS011;3044;43.232;27.972;2023-02-12T10:49:18;29.13;;;17.07;;
6031;SDS011;3044;43.232;27.972;2023-02-12T10:51:55;27.37;;;18.17;;
6031;SDS011;3044;43.232;27.972;2023-02-12T10:54:30;29.90;;;19.50;;
6031;SDS011;3044;43.232;27.972;2023-02-12T10:57:05;28.13;;;18.73;;
6031;SDS011;3044;43.232;27.972;2023-02-12T10:59:35;32.10;;;19.50;;
6031;SDS011;3044;43.232;27.972;2023-02-12T11:02:04;37.83;;;19.37;;
6031;SDS011;3044;43.232;27.972;2023-02-12T11:04:43;33.10;;;19.83;;
6031;SDS011;3044;43.232;27.972;2023-02-12T11:07:10;31.63;;;20.53;;
6031;SDS011;3044;43.232;27.972;2023-02-12T11:09:38;38.77;;;22.50;;
6031;SDS011;3044;43.232;27.972;2023-02-12T11:12:16;35.67;;;22.13;;
6031;SDS011;3044;43.232;27.972;2023-02-12T11:14:57;31.57;;;19.57;;
6031;SDS011;3044;43.232;27.972;2023-02-12T11:17:29;39.77;;;21.60;;
6031;SDS011;3044;43.232;27.972;2023-02-12T11:20:00;29.87;;;19.80;;
6031;SDS011;3044;43.232;27.972;2023-02-12T11:22:52;32.60;;;21.13;;
6031;SDS011;3044;43.232;27.972;2023-02-12T11:25:22;28.80;;;18.87;;
6031;SDS011;3044;43.232;27.972;2023-02-12T11:30:49;30.70;;;18.27;;
6031;SDS011;3044;43.232;27.972;2023-02-12T11:33:24;32.53;;;17.77;;
6031;SDS011;3044;43.232;27.972;2023-02-12T11:35:54;38.53;;;19.80;;
6031;SDS011;3044;43.232;27.972;2023-02-12T11:38:25;31.10;;;19.50;;
6031;SDS011;3044;43.232;27.972;2023-02-12T11:40:56;32.23;;;19.13;;
6031;SDS011;3044;43.232;27.972;2023-02-12T11:43:26;27.47;;;18.47;;
6031;SDS011;3044;43.232;27.972;2023-02-12T11:45:55;28.57;;;19.30;;
6031;SDS011;3044;43.232;27.972;2023-02-12T11:48:26;30.27;;;18.70;;
6031;SDS011;3044;43.232;27.972;2023-02-12T11:50:59;25.30;;;17.03;;
6031;SDS011;3044;43.232;27.972;2023-02-12T11:53:29;28.77;;;16.63;;
6031;SDS011;3044;43.232;27.972;2023-02-12T11:56:00;26.60;;;15.77;;
6031;SDS011;3044;43.232;27.972;2023-02-12T11:58:30;22.27;;;15.07;;
6031;SDS011;3044;43.232;27.972;2023-02-12T12:01:02;23.00;;;15.60;;
6031;SDS011;3044;43.232;27.972;2023-02-12T12:03:38;28.20;;;17.10;;
6031;SDS011;3044;43.232;27.972;2023-02-12T12:06:17;28.73;;;17.17;;
6031;SDS011;3044;43.232;27.972;2023-02-12T12:08:51;28.23;;;17.47;;
6031;SDS011;3044;43.232;27.972;2023-02-12T12:11:24;26.57;;;17.07;;
6031;SDS011;3044;43.232;27.972;2023-02-12T12:13:57;31.97;;;18.97;;
6031;SDS011;3044;43.232;27.972;2023-02-12T12:16:29;34.80;;;19.80;;
6031;SDS011;3044;43.232;27.972;2023-02-12T12:19:20;30.50;;;17.73;;
6031;SDS011;3044;43.232;27.972;2023-02-12T12:22:19;30.97;;;18.70;;
6031;SDS011;3044;43.232;27.972;2023-02-12T12:24:56;29.60;;;17.93;;
6031;SDS011;3044;43.232;27.972;2023-02-12T12:27:30;27.47;;;17.33;;
6031;SDS011;3044;43.232;27.972;2023-02-12T12:30:20;27.70;;;18.40;;
6031;SDS011;3044;43.232;27.972;2023-02-12T12:32:50;30.37;;;17.73;;
6031;SDS011;3044;43.232;27.972;2023-02-12T12:35:23;36.93;;;19.50;;
6031;SDS011;3044;43.232;27.972;2023-02-12T12:37:57;27.17;;;16.60;;
6031;SDS011;3044;43.232;27.972;2023-02-12T12:40:42;32.40;;;17.40;;
6031;SDS011;3044;43.232;27.972;2023-02-12T12:43:21;33.83;;;19.03;;
6031;SDS011;3044;43.232;27.972;2023-02-12T12:48:54;31.47;;;20.00;;
6031;SDS011;3044;43.232;27.972;2023-02-12T12:51:55;33.13;;;20.03;;
6031;SDS011;3044;43.232;27.972;2023-02-12T12:54:37;30.50;;;18.77;;
6031;SDS011;3044;43.232;27.972;2023-02-12T12:57:19;32.37;;;19.07;;
6031;SDS011;3044;43.232;27.972;2023-02-12T13:00:07;32.70;;;19.00;;
6031;SDS011;3044;43.232;27.972;2023-02-12T13:05:52;37.70;;;20.83;;
6031;SDS011;3044;43.232;27.972;2023-02-12T13:12:02;39.43;;;23.00;;
6031;SDS011;3044;43.232;27.972;2023-02-12T13:14:51;29.40;;;19.20;;
6031;SDS011;3044;43.232;27.972;2023-02-12T13:17:26;33.17;;;20.10;;
6031;SDS011;3044;43.232;27.972;2023-02-12T13:19:59;48.47;;;22.20;;
6031;SDS011;3044;43.232;27.972;2023-02-12T13:22:35;41.90;;;23.20;;
6031;SDS011;3044;43.232;27.972;2023-02-12T13:25:17;35.40;;;21.37;;
6031;SDS011;3044;43.232;27.972;2023-02-12T13:27:49;36.40;;;21.97;;
6031;SDS011;3044;43.232;27.972;2023-02-12T13:30:19;36.47;;;21.10;;
6031;SDS011;3044;43.232;27.972;2023-02-12T13:32:50;36.23;;;19.00;;
6031;SDS011;3044;43.232;27.972;2023-02-12T13:35:28;37.60;;;21.40;;
6031;SDS011;3044;43.232;27.972;2023-02-12T13:37:58;34.90;;;22.07;;
6031;SDS011;3044;43.232;27.972;2023-02-12T13:40:29;37.27;;;21.10;;
6031;SDS011;3044;43.232;27.972;2023-02-12T13:42:59;33.80;;;21.70;;
6031;SDS011;3044;43.232;27.972;2023-02-12T13:45:35;35.90;;;20.57;;
6031;SDS011;3044;43.232;27.972;2023-02-12T13:48:17;33.70;;;21.23;;
6031;SDS011;3044;43.232;27.972;2023-02-12T13:50:52;42.17;;;22.70;;
6031;SDS011;3044;43.232;27.972;2023-02-12T13:53:26;31.70;;;20.47;;
6031;SDS011;3044;43.232;27.972;2023-02-12T13:56:04;35.37;;;21.27;;
6031;SDS011;3044;43.232;27.972;2023-02-12T13:58:39;34.23;;;21.80;;
6031;SDS011;3044;43.232;27.972;2023-02-12T14:06:58;38.23;;;20.80;;
6031;SDS011;3044;43.232;27.972;2023-02-12T14:09:29;40.10;;;22.07;;
6031;SDS011;3044;43.232;27.972;2023-02-12T14:12:04;40.03;;;23.30;;
6031;SDS011;3044;43.232;27.972;2023-02-12T14:14:35;38.03;;;21.93;;
6031;SDS011;3044;43.232;27.972;2023-02-12T14:20:06;35.50;;;22.20;;
6031;SDS011;3044;43.232;27.972;2023-02-12T14:25:48;36.37;;;22.60;;
6031;SDS011;3044;43.232;27.972;2023-02-12T14:28:25;38.10;;;23.70;;
6031;SDS011;3044;43.232;27.972;2023-02-12T14:45:53;27.50;;;18.07;;
6031;SDS011;3044;43.232;27.972;2023-02-12T14:48:38;32.73;;;19.93;;
6031;SDS011;3044;43.232;27.972;2023-02-12T14:51:11;29.33;;;18.50;;
6031;SDS011;3044;43.232;27.972;2023-02-12T14:53:43;31.67;;;19.67;;
6031;SDS011;3044;43.232;27.972;2023-02-12T14:56:13;28.83;;;19.27;;
6031;SDS011;3044;43.232;27.972;2023-02-12T14:58:48;28.73;;;18.20;;
6031;SDS011;3044;43.232;27.972;2023-02-12T15:01:16;29.33;;;18.43;;
6031;SDS011;3044;43.232;27.972;2023-02-12T15:03:45;25.77;;;16.13;;
6031;SDS011;3044;43.232;27.972;2023-02-12T15:06:17;23.77;;;15.70;;
6031;SDS011;3044;43.232;27.972;2023-02-12T15:08:48;27.43;;;16.20;;
6031;SDS011;3044;43.232;27.972;2023-02-12T15:11:23;28.17;;;17.47;;
6031;SDS011;3044;43.232;27.972;2023-02-12T15:14:01;33.50;;;17.97;;
6031;SDS011;3044;43.232;27.972;2023-02-12T15:16:39;32.13;;;18.10;;
6031;SDS011;3044;43.232;27.972;2023-02-12T15:19:16;27.03;;;17.20;;
6031;SDS011;3044;43.232;27.972;2023-02-12T15:21:57;27.13;;;17.57;;
6031;SDS011;3044;43.232;27.972;2023-02-12T15:24:25;29.50;;;18.47;;
6031;SDS011;3044;43.232;27.972;2023-02-12T15:26:53;29.37;;;18.20;;
6031;SDS011;3044;43.232;27.972;2023-02-12T15:29:24;27.57;;;17.30;;
6031;SDS011;3044;43.232;27.972;2023-02-12T15:31:58;35.13;;;19.17;;
6031;SDS011;3044;43.232;27.972;2023-02-12T15:34:28;31.07;;;18.90;;
6031;SDS011;3044;43.232;27.972;2023-02-12T15:37:00;30.57;;;19.90;;
6031;SDS011;3044;43.232;27.972;2023-02-12T15:39:33;26.83;;;17.63;;
6031;SDS011;3044;43.232;27.972;2023-02-12T15:42:21;30.40;;;19.10;;
6031;SDS011;3044;43.232;27.972;2023-02-12T15:44:51;28.03;;;17.47;;
6031;SDS011;3044;43.232;27.972;2023-02-12T15:47:28;31.53;;;18.37;;
6031;SDS011;3044;43.232;27.972;2023-02-12T15:49:58;32.77;;;19.20;;
6031;SDS011;3044;43.232;27.972;2023-02-12T15:52:26;27.73;;;18.23;;
6031;SDS011;3044;43.232;27.972;2023-02-12T15:55:00;34.83;;;19.67;;
6031;SDS011;3044;43.232;27.972;2023-02-12T15:57:29;39.37;;;20.00;;
6031;SDS011;3044;43.232;27.972;2023-02-12T16:00:02;30.53;;;18.60;;
6031;SDS011;3044;43.232;27.972;2023-02-12T16:02:33;34.30;;;20.10;;
6031;SDS011;3044;43.232;27.972;2023-02-12T16:05:01;33.73;;;20.80;;
6031;SDS011;3044;43.232;27.972;2023-02-12T16:07:31;32.63;;;20.00;;
6031;SDS011;3044;43.232;27.972;2023-02-12T16:10:02;31.80;;;20.80;;
6031;SDS011;3044;43.232;27.972;2023-02-12T16:12:32;35.70;;;22.30;;
6031;SDS011;3044;43.232;27.972;2023-02-12T16:15:03;33.57;;;21.30;;
6031;SDS011;3044;43.232;27.972;2023-02-12T16:17:33;36.23;;;22.37;;
6031;SDS011;3044;43.232;27.972;2023-02-12T16:20:03;33.07;;;21.60;;
6031;SDS011;3044;43.232;27.972;2023-02-12T16:22:35;36.83;;;22.80;;
6031;SDS011;3044;43.232;27.972;2023-02-12T16:25:11;34.53;;;22.00;;
6031;SDS011;3044;43.232;27.972;2023-02-12T16:27:48;30.73;;;20.20;;
6031;SDS011;3044;43.232;27.972;2023-02-12T16:32:56;34.70;;;22.60;;
6031;SDS011;3044;43.232;27.972;2023-02-12T16:35:27;33.33;;;22.03;;
6031;SDS011;3044;43.232;27.972;2023-02-12T16:37:58;33.47;;;19.83;;
6031;SDS011;3044;43.232;27.972;2023-02-12T16:40:31;34.83;;;20.80;;
6031;SDS011;3044;43.232;27.972;2023-02-12T16:43:13;33.87;;;21.27;;
6031;SDS011;3044;43.232;27.972;2023-02-12T16:45:50;36.87;;;22.20;;
6031;SDS011;3044;43.232;27.972;2023-02-12T16:48:28;36.40;;;19.70;;